sensor_id;sensor_type;location;lat;lon;timestamp;pressure;altitude;pressure_sealevel;temperature;humidity
71165;BME280;58859;55.132;-1.586;2023-03-25T00:02:24;98410.88;;;12.40;100.00
71165;BME280;58859;55.132;-1.586;2023-03-25T00:04:52;98399.91;;;13.10;100.00
71165;BME280;58859;55.132;-1.586;2023-03-25T00:07:19;98405.25;;;12.79;100.00
71165;BME280;58859;55.132;-1.586;2023-03-25T00:09:45;98407.69;;;12.92;100.00
71165;BME280;58859;55.132;-1.586;2023-03-25T00:12:12;98404.81;;;12.82;100.00
71165;BME280;58859;55.132;-1.586;2023-03-25T00:14:38;98400.53;;;12.51;100.00
71165;BME280;58859;55.132;-1.586;2023-03-25T00:17:04;98403.56;;;12.66;100.00
71165;BME280;58859;55.132;-1.586;2023-03-25T00:19:31;98378.34;;;12.42;100.00
71165;BME280;58859;55.132;-1.586;2023-03-25T00:21:57;98406.25;;;12.60;100.00
71165;BME280;58859;55.132;-1.586;2023-03-25T00:24:23;98391.19;;;12.62;100.00
71165;BME280;58859;55.132;-1.586;2023-03-25T00:26:48;98394.78;;;12.61;100.00
71165;BME280;58859;55.132;-1.586;2023-03-25T00:29:15;98400.81;;;12.61;100.00
71165;BME280;58859;55.132;-1.586;2023-03-25T00:31:41;98399.72;;;12.69;100.00
71165;BME280;58859;55.132;-1.586;2023-03-25T00:34:07;98403.81;;;12.40;100.00
71165;BME280;58859;55.132;-1.586;2023-03-25T00:36:33;98397.41;;;12.43;100.00
71165;BME280;58859;55.132;-1.586;2023-03-25T00:39:03;98390.75;;;13.01;100.00
71165;BME280;58859;55.132;-1.586;2023-03-25T00:41:29;98391.00;;;12.39;100.00
71165;BME280;58859;55.132;-1.586;2023-03-25T00:43:59;98392.34;;;12.23;100.00
71165;BME280;58859;55.132;-1.586;2023-03-25T00:46:26;98390.81;;;12.16;100.00
71165;BME280;58859;55.132;-1.586;2023-03-25T00:48:53;98399.25;;;11.86;100.00
71165;BME280;58859;55.132;-1.586;2023-03-25T00:51:19;98394.88;;;12.12;100.00
71165;BME280;58859;55.132;-1.586;2023-03-25T00:53:48;98386.34;;;11.98;100.00
71165;BME280;58859;55.132;-1.586;2023-03-25T00:56:16;98392.47;;;11.85;100.00
71165;BME280;58859;55.132;-1.586;2023-03-25T00:58:41;98378.88;;;12.08;100.00
71165;BME280;58859;55.132;-1.586;2023-03-25T01:01:12;98393.91;;;11.81;100.00
71165;BME280;58859;55.132;-1.586;2023-03-25T01:03:42;98388.88;;;12.11;100.00
71165;BME280;58859;55.132;-1.586;2023-03-25T01:06:13;98394.72;;;12.31;100.00
71165;BME280;58859;55.132;-1.586;2023-03-25T01:08:40;98392.78;;;11.95;100.00
71165;BME280;58859;55.132;-1.586;2023-03-25T01:11:16;98404.09;;;12.32;100.00
71165;BME280;58859;55.132;-1.586;2023-03-25T01:13:42;98396.78;;;12.23;100.00
71165;BME280;58859;55.132;-1.586;2023-03-25T01:16:08;98385.50;;;12.47;100.00
71165;BME280;58859;55.132;-1.586;2023-03-25T01:18:34;98394.53;;;12.26;100.00
71165;BME280;58859;55.132;-1.586;2023-03-25T01:21:05;98389.31;;;12.26;100.00
71165;BME280;58859;55.132;-1.586;2023-03-25T01:23:32;98397.03;;;11.59;100.00
71165;BME280;58859;55.132;-1.586;2023-03-25T01:25:58;98394.22;;;11.60;100.00
71165;BME280;58859;55.132;-1.586;2023-03-25T01:28:23;98392.63;;;11.90;100.00
71165;BME280;58859;55.132;-1.586;2023-03-25T01:30:48;98385.72;;;12.27;100.00
71165;BME280;58859;55.132;-1.586;2023-03-25T01:33:14;98382.53;;;12.25;100.00
71165;BME280;58859;55.132;-1.586;2023-03-25T01:35:40;98377.03;;;11.84;100.00
71165;BME280;58859;55.132;-1.586;2023-03-25T01:38:06;98385.66;;;11.84;100.00
71165;BME280;58859;55.132;-1.586;2023-03-25T01:40:32;98392.50;;;11.79;100.00
71165;BME280;58859;55.132;-1.586;2023-03-25T01:42:58;98387.91;;;12.05;100.00
71165;BME280;58859;55.132;-1.586;2023-03-25T01:45:33;98381.16;;;11.98;100.00
71165;BME280;58859;55.132;-1.586;2023-03-25T01:48:05;98384.47;;;12.12;100.00
71165;BME280;58859;55.132;-1.586;2023-03-25T01:50:35;98377.75;;;12.40;100.00
71165;BME280;58859;55.132;-1.586;2023-03-25T01:53:03;98389.97;;;12.22;100.00
71165;BME280;58859;55.132;-1.586;2023-03-25T01:55:32;98383.94;;;12.03;100.00
71165;BME280;58859;55.132;-1.586;2023-03-25T01:58:00;98388.25;;;11.84;100.00
71165;BME280;58859;55.132;-1.586;2023-03-25T02:00:29;98389.72;;;11.80;100.00
71165;BME280;58859;55.132;-1.586;2023-03-25T02:02:57;98389.06;;;12.09;100.00
71165;BME280;58859;55.132;-1.586;2023-03-25T02:05:31;98387.56;;;11.64;100.00
71165;BME280;58859;55.132;-1.586;2023-03-25T02:08:01;98376.28;;;11.83;100.00
71165;BME280;58859;55.132;-1.586;2023-03-25T02:10:28;98383.00;;;12.16;100.00
71165;BME280;58859;55.132;-1.586;2023-03-25T02:12:53;98376.59;;;11.93;100.00
71165;BME280;58859;55.132;-1.586;2023-03-25T02:15:19;98356.28;;;11.77;100.00
71165;BME280;58859;55.132;-1.586;2023-03-25T02:28:45;98376.69;;;11.80;100.00
71165;BME280;58859;55.132;-1.586;2023-03-25T02:39:36;98386.19;;;12.18;100.00
71165;BME280;58859;55.132;-1.586;2023-03-25T02:47:46;98377.22;;;11.58;100.00
71165;BME280;58859;55.132;-1.586;2023-03-25T02:50:15;98391.06;;;11.51;100.00
71165;BME280;58859;55.132;-1.586;2023-03-25T02:52:48;98387.31;;;12.03;100.00
71165;BME280;58859;55.132;-1.586;2023-03-25T02:55:17;98376.59;;;12.36;100.00
71165;BME280;58859;55.132;-1.586;2023-03-25T02:57:46;98387.53;;;12.63;100.00
71165;BME280;58859;55.132;-1.586;2023-03-25T03:00:17;98387.75;;;12.43;100.00
71165;BME280;58859;55.132;-1.586;2023-03-25T03:02:53;98403.03;;;12.15;100.00
71165;BME280;58859;55.132;-1.586;2023-03-25T03:21:46;98410.88;;;12.15;100.00
71165;BME280;58859;55.132;-1.586;2023-03-25T03:24:35;98415.56;;;12.49;100.00
71165;BME280;58859;55.132;-1.586;2023-03-25T03:27:16;98420.25;;;12.41;100.00
71165;BME280;58859;55.132;-1.586;2023-03-25T03:29:54;98407.25;;;12.59;100.00
71165;BME280;58859;55.132;-1.586;2023-03-25T03:32:29;98419.97;;;12.49;100.00
71165;BME280;58859;55.132;-1.586;2023-03-25T03:35:21;98422.88;;;12.41;100.00
71165;BME280;58859;55.132;-1.586;2023-03-25T03:37:51;98424.84;;;12.45;100.00
71165;BME280;58859;55.132;-1.586;2023-03-25T03:40:22;98422.00;;;12.29;100.00
71165;BME280;58859;55.132;-1.586;2023-03-25T03:42:53;98427.47;;;12.45;100.00
71165;BME280;58859;55.132;-1.586;2023-03-25T03:45:37;98419.88;;;12.62;100.00
71165;BME280;58859;55.132;-1.586;2023-03-25T03:48:09;98422.47;;;12.62;100.00
71165;BME280;58859;55.132;-1.586;2023-03-25T03:50:52;98417.75;;;12.52;100.00
71165;BME280;58859;55.132;-1.586;2023-03-25T03:53:28;98438.03;;;12.50;100.00
71165;BME280;58859;55.132;-1.586;2023-03-25T03:56:12;98432.50;;;12.40;100.00
71165;BME280;58859;55.132;-1.586;2023-03-25T03:58:41;98435.03;;;12.29;100.00
71165;BME280;58859;55.132;-1.586;2023-03-25T04:01:13;98444.47;;;12.48;100.00
71165;BME280;58859;55.132;-1.586;2023-03-25T04:03:53;98443.44;;;12.49;100.00
71165;BME280;58859;55.132;-1.586;2023-03-25T04:06:26;98433.25;;;12.47;100.00
71165;BME280;58859;55.132;-1.586;2023-03-25T04:09:06;98452.91;;;12.43;100.00
71165;BME280;58859;55.132;-1.586;2023-03-25T04:11:40;98458.63;;;12.34;100.00
71165;BME280;58859;55.132;-1.586;2023-03-25T04:14:08;98460.41;;;12.40;100.00
71165;BME280;58859;55.132;-1.586;2023-03-25T04:16:34;98461.78;;;12.60;100.00
71165;BME280;58859;55.132;-1.586;2023-03-25T04:19:03;98464.66;;;12.34;100.00
71165;BME280;58859;55.132;-1.586;2023-03-25T04:21:29;98469.63;;;12.11;100.00
71165;BME280;58859;55.132;-1.586;2023-03-25T04:23:55;98466.97;;;12.18;100.00
71165;BME280;58859;55.132;-1.586;2023-03-25T04:26:20;98471.66;;;12.34;100.00
71165;BME280;58859;55.132;-1.586;2023-03-25T04:28:46;98480.19;;;12.23;100.00
71165;BME280;58859;55.132;-1.586;2023-03-25T04:31:13;98487.78;;;11.93;100.00
71165;BME280;58859;55.132;-1.586;2023-03-25T04:33:45;98490.13;;;12.01;100.00
71165;BME280;58859;55.132;-1.586;2023-03-25T04:36:12;98479.53;;;12.02;100.00
71165;BME280;58859;55.132;-1.586;2023-03-25T04:38:38;98497.41;;;11.92;100.00
71165;BME280;58859;55.132;-1.586;2023-03-25T04:41:05;98508.47;;;11.88;100.00
71165;BME280;58859;55.132;-1.586;2023-03-25T04:43:31;98501.38;;;12.26;100.00
71165;BME280;58859;55.132;-1.586;2023-03-25T04:45:58;98514.97;;;12.03;100.00
71165;BME280;58859;55.132;-1.586;2023-03-25T04:48:26;98523.41;;;12.05;100.00
71165;BME280;58859;55.132;-1.586;2023-03-25T04:51:00;98521.13;;;12.40;100.00
71165;BME280;58859;55.132;-1.586;2023-03-25T04:53:28;98526.28;;;11.91;100.00
71165;BME280;58859;55.132;-1.586;2023-03-25T04:55:54;98524.34;;;11.80;100.00
71165;BME280;58859;55.132;-1.586;2023-03-25T04:58:19;98532.38;;;11.65;100.00
71165;BME280;58859;55.132;-1.586;2023-03-25T05:00:47;98544.03;;;11.49;100.00
71165;BME280;58859;55.132;-1.586;2023-03-25T05:03:15;98543.81;;;12.08;100.00
71165;BME280;58859;55.132;-1.586;2023-03-25T05:05:40;98555.03;;;11.71;100.00
71165;BME280;58859;55.132;-1.586;2023-03-25T05:08:06;98556.41;;;11.80;100.00
71165;BME280;58859;55.132;-1.586;2023-03-25T05:10:32;98575.00;;;12.22;100.00
71165;BME280;58859;55.132;-1.586;2023-03-25T05:13:01;98580.59;;;11.81;100.00
71165;BME280;58859;55.132;-1.586;2023-03-25T05:15:27;98589.50;;;11.47;100.00
71165;BME280;58859;55.132;-1.586;2023-03-25T05:17:54;98597.47;;;11.65;100.00
71165;BME280;58859;55.132;-1.586;2023-03-25T05:20:20;98598.88;;;11.61;100.00
71165;BME280;58859;55.132;-1.586;2023-03-25T05:22:46;98593.47;;;12.20;100.00
71165;BME280;58859;55.132;-1.586;2023-03-25T05:25:12;98618.03;;;11.86;100.00
71165;BME280;58859;55.132;-1.586;2023-03-25T05:27:38;98618.13;;;11.60;100.00
71165;BME280;58859;55.132;-1.586;2023-03-25T05:30:05;98635.16;;;11.49;100.00
71165;BME280;58859;55.132;-1.586;2023-03-25T05:32:30;98625.19;;;11.40;100.00
71165;BME280;58859;55.132;-1.586;2023-03-25T05:34:59;98633.63;;;12.06;100.00
71165;BME280;58859;55.132;-1.586;2023-03-25T05:37:25;98631.06;;;11.93;100.00
71165;BME280;58859;55.132;-1.586;2023-03-25T05:39:51;98648.78;;;12.22;100.00
71165;BME280;58859;55.132;-1.586;2023-03-25T05:42:17;98656.78;;;11.50;100.00
71165;BME280;58859;55.132;-1.586;2023-03-25T05:44:47;98664.75;;;11.88;100.00
71165;BME280;58859;55.132;-1.586;2023-03-25T05:47:19;98667.59;;;11.47;100.00
71165;BME280;58859;55.132;-1.586;2023-03-25T05:49:46;98669.09;;;12.00;100.00
71165;BME280;58859;55.132;-1.586;2023-03-25T05:52:13;98685.81;;;12.31;100.00
71165;BME280;58859;55.132;-1.586;2023-03-25T05:54:38;98684.22;;;12.30;100.00
71165;BME280;58859;55.132;-1.586;2023-03-25T05:57:06;98692.03;;;11.59;100.00
71165;BME280;58859;55.132;-1.586;2023-03-25T05:59:33;98706.75;;;12.55;100.00
71165;BME280;58859;55.132;-1.586;2023-03-25T06:01:58;98714.19;;;12.52;100.00
71165;BME280;58859;55.132;-1.586;2023-03-25T06:04:24;98714.47;;;11.60;100.00
71165;BME280;58859;55.132;-1.586;2023-03-25T06:06:49;98725.34;;;12.28;100.00
71165;BME280;58859;55.132;-1.586;2023-03-25T06:09:15;98738.25;;;12.03;100.00
71165;BME280;58859;55.132;-1.586;2023-03-25T06:11:42;98745.25;;;12.02;100.00
71165;BME280;58859;55.132;-1.586;2023-03-25T06:14:08;98753.91;;;11.31;100.00
71165;BME280;58859;55.132;-1.586;2023-03-25T06:16:34;98758.31;;;11.30;100.00
71165;BME280;58859;55.132;-1.586;2023-03-25T06:18:59;98769.13;;;11.47;100.00
71165;BME280;58859;55.132;-1.586;2023-03-25T06:21:30;98778.72;;;11.99;100.00
71165;BME280;58859;55.132;-1.586;2023-03-25T06:23:59;98778.31;;;12.02;100.00
71165;BME280;58859;55.132;-1.586;2023-03-25T06:26:28;98782.03;;;13.28;100.00
71165;BME280;58859;55.132;-1.586;2023-03-25T06:28:53;98799.63;;;12.56;100.00
71165;BME280;58859;55.132;-1.586;2023-03-25T06:31:23;98800.13;;;12.21;100.00
71165;BME280;58859;55.132;-1.586;2023-03-25T06:33:53;98805.44;;;12.58;100.00
71165;BME280;58859;55.132;-1.586;2023-03-25T06:36:19;98816.94;;;12.38;100.00
71165;BME280;58859;55.132;-1.586;2023-03-25T06:38:45;98819.09;;;13.05;100.00
71165;BME280;58859;55.132;-1.586;2023-03-25T06:41:12;98829.91;;;12.57;100.00
71165;BME280;58859;55.132;-1.586;2023-03-25T06:43:38;98825.31;;;12.59;100.00
71165;BME280;58859;55.132;-1.586;2023-03-25T06:46:04;98839.66;;;12.82;100.00
71165;BME280;58859;55.132;-1.586;2023-03-25T06:48:29;98842.28;;;13.26;100.00
71165;BME280;58859;55.132;-1.586;2023-03-25T06:50:55;98849.66;;;13.36;100.00
71165;BME280;58859;55.132;-1.586;2023-03-25T06:53:20;98863.59;;;12.65;100.00
71165;BME280;58859;55.132;-1.586;2023-03-25T06:55:46;98868.84;;;12.59;100.00
71165;BME280;58859;55.132;-1.586;2023-03-25T06:58:11;98873.69;;;12.42;100.00
71165;BME280;58859;55.132;-1.586;2023-03-25T07:00:37;98874.50;;;13.76;100.00
71165;BME280;58859;55.132;-1.586;2023-03-25T07:03:02;98887.09;;;14.35;100.00
71165;BME280;58859;55.132;-1.586;2023-03-25T07:05:28;98895.88;;;14.83;100.00
71165;BME280;58859;55.132;-1.586;2023-03-25T07:07:53;98901.13;;;15.13;100.00
71165;BME280;58859;55.132;-1.586;2023-03-25T07:10:19;98899.78;;;17.09;100.00
71165;BME280;58859;55.132;-1.586;2023-03-25T07:12:44;98909.72;;;17.47;100.00
71165;BME280;58859;55.132;-1.586;2023-03-25T07:15:09;98906.47;;;18.35;100.00
71165;BME280;58859;55.132;-1.586;2023-03-25T07:17:35;98915.84;;;15.62;100.00
71165;BME280;58859;55.132;-1.586;2023-03-25T07:20:01;98927.47;;;14.82;100.00
71165;BME280;58859;55.132;-1.586;2023-03-25T07:22:26;98934.59;;;14.93;100.00
71165;BME280;58859;55.132;-1.586;2023-03-25T07:24:52;98946.84;;;14.38;100.00
71165;BME280;58859;55.132;-1.586;2023-03-25T07:27:17;98951.16;;;13.95;100.00
71165;BME280;58859;55.132;-1.586;2023-03-25T07:29:43;98956.28;;;15.00;100.00
71165;BME280;58859;55.132;-1.586;2023-03-25T07:32:08;98959.72;;;15.01;100.00
71165;BME280;58859;55.132;-1.586;2023-03-25T07:34:34;98972.84;;;14.76;100.00
71165;BME280;58859;55.132;-1.586;2023-03-25T07:36:59;98983.47;;;14.81;100.00
71165;BME280;58859;55.132;-1.586;2023-03-25T07:39:25;98974.16;;;14.67;100.00
71165;BME280;58859;55.132;-1.586;2023-03-25T07:41:51;98989.81;;;15.28;100.00
71165;BME280;58859;55.132;-1.586;2023-03-25T07:44:17;99006.06;;;15.18;100.00
71165;BME280;58859;55.132;-1.586;2023-03-25T07:46:45;99003.91;;;15.27;100.00
71165;BME280;58859;55.132;-1.586;2023-03-25T07:49:10;99005.47;;;15.34;100.00
71165;BME280;58859;55.132;-1.586;2023-03-25T07:51:36;99014.06;;;15.23;100.00
71165;BME280;58859;55.132;-1.586;2023-03-25T07:54:01;99030.88;;;14.91;100.00
71165;BME280;58859;55.132;-1.586;2023-03-25T07:56:27;99029.13;;;14.85;100.00
71165;BME280;58859;55.132;-1.586;2023-03-25T07:58:52;99047.59;;;14.90;100.00
71165;BME280;58859;55.132;-1.586;2023-03-25T08:01:18;99050.97;;;14.97;100.00
71165;BME280;58859;55.132;-1.586;2023-03-25T08:03:43;99057.03;;;15.34;100.00
71165;BME280;58859;55.132;-1.586;2023-03-25T08:06:09;99070.28;;;15.21;100.00
71165;BME280;58859;55.132;-1.586;2023-03-25T08:08:34;99076.16;;;14.98;100.00
71165;BME280;58859;55.132;-1.586;2023-03-25T08:11:00;99077.72;;;15.78;100.00
71165;BME280;58859;55.132;-1.586;2023-03-25T08:13:26;99087.44;;;16.07;100.00
71165;BME280;58859;55.132;-1.586;2023-03-25T08:15:51;99094.13;;;15.74;100.00
71165;BME280;58859;55.132;-1.586;2023-03-25T08:18:17;99091.84;;;16.25;100.00
71165;BME280;58859;55.132;-1.586;2023-03-25T08:20:43;99096.34;;;16.36;100.00
71165;BME280;58859;55.132;-1.586;2023-03-25T08:23:08;99109.59;;;16.12;100.00
71165;BME280;58859;55.132;-1.586;2023-03-25T08:25:38;99115.00;;;15.98;100.00
71165;BME280;58859;55.132;-1.586;2023-03-25T08:28:04;99122.75;;;15.32;100.00
71165;BME280;58859;55.132;-1.586;2023-03-25T08:30:33;99131.13;;;15.66;100.00
71165;BME280;58859;55.132;-1.586;2023-03-25T08:33:07;99133.66;;;15.54;100.00
71165;BME280;58859;55.132;-1.586;2023-03-25T08:35:34;99140.94;;;15.70;100.00
71165;BME280;58859;55.132;-1.586;2023-03-25T08:37:59;99156.81;;;14.83;100.00
71165;BME280;58859;55.132;-1.586;2023-03-25T08:40:28;99161.25;;;15.32;100.00
71165;BME280;58859;55.132;-1.586;2023-03-25T08:42:54;99170.56;;;14.72;100.00
71165;BME280;58859;55.132;-1.586;2023-03-25T08:45:19;99175.94;;;15.33;100.00
71165;BME280;58859;55.132;-1.586;2023-03-25T08:47:45;99184.78;;;14.51;100.00
71165;BME280;58859;55.132;-1.586;2023-03-25T08:50:10;99201.84;;;14.91;100.00
71165;BME280;58859;55.132;-1.586;2023-03-25T08:52:36;99204.59;;;15.28;100.00
71165;BME280;58859;55.132;-1.586;2023-03-25T08:55:02;99214.75;;;14.55;100.00
71165;BME280;58859;55.132;-1.586;2023-03-25T08:57:28;99213.09;;;14.03;100.00
71165;BME280;58859;55.132;-1.586;2023-03-25T08:59:53;99228.59;;;14.62;100.00
71165;BME280;58859;55.132;-1.586;2023-03-25T09:02:18;99239.06;;;14.05;100.00
71165;BME280;58859;55.132;-1.586;2023-03-25T09:04:46;99241.47;;;14.64;100.00
71165;BME280;58859;55.132;-1.586;2023-03-25T09:07:12;99256.78;;;14.67;100.00
71165;BME280;58859;55.132;-1.586;2023-03-25T09:09:39;99255.28;;;14.20;100.00
71165;BME280;58859;55.132;-1.586;2023-03-25T09:12:05;99271.16;;;14.25;100.00
71165;BME280;58859;55.132;-1.586;2023-03-25T09:14:31;99275.91;;;14.61;100.00
71165;BME280;58859;55.132;-1.586;2023-03-25T09:16:56;99278.19;;;14.31;100.00
71165;BME280;58859;55.132;-1.586;2023-03-25T09:19:22;99282.50;;;15.08;100.00
71165;BME280;58859;55.132;-1.586;2023-03-25T09:21:47;99285.25;;;14.37;100.00
71165;BME280;58859;55.132;-1.586;2023-03-25T09:24:13;99297.34;;;14.12;100.00
71165;BME280;58859;55.132;-1.586;2023-03-25T09:26:38;99304.78;;;14.21;100.00
71165;BME280;58859;55.132;-1.586;2023-03-25T09:29:04;99314.66;;;15.21;100.00
71165;BME280;58859;55.132;-1.586;2023-03-25T09:31:31;99310.16;;;14.53;100.00
71165;BME280;58859;55.132;-1.586;2023-03-25T09:33:57;99324.69;;;14.35;100.00
71165;BME280;58859;55.132;-1.586;2023-03-25T09:36:23;99325.31;;;14.82;100.00
71165;BME280;58859;55.132;-1.586;2023-03-25T09:38:48;99333.72;;;14.97;100.00
71165;BME280;58859;55.132;-1.586;2023-03-25T09:46:31;99366.56;;;14.16;100.00
71165;BME280;58859;55.132;-1.586;2023-03-25T09:48:58;99356.63;;;14.51;100.00
71165;BME280;58859;55.132;-1.586;2023-03-25T09:51:28;99371.75;;;15.06;100.00
71165;BME280;58859;55.132;-1.586;2023-03-25T09:54:11;99381.91;;;14.83;100.00
71165;BME280;58859;55.132;-1.586;2023-03-25T09:56:42;99391.16;;;15.30;100.00
71165;BME280;58859;55.132;-1.586;2023-03-25T09:59:17;99390.94;;;15.38;100.00
71165;BME280;58859;55.132;-1.586;2023-03-25T10:12:34;99428.16;;;15.09;100.00
71165;BME280;58859;55.132;-1.586;2023-03-25T10:23:02;99485.41;;;14.26;100.00
71165;BME280;58859;55.132;-1.586;2023-03-25T10:25:34;99489.25;;;14.76;100.00
71165;BME280;58859;55.132;-1.586;2023-03-25T10:28:04;99496.03;;;15.10;100.00
71165;BME280;58859;55.132;-1.586;2023-03-25T10:30:42;99509.38;;;14.95;100.00
71165;BME280;58859;55.132;-1.586;2023-03-25T10:33:34;99513.97;;;15.00;100.00
71165;BME280;58859;55.132;-1.586;2023-03-25T10:36:02;99519.03;;;14.88;100.00
71165;BME280;58859;55.132;-1.586;2023-03-25T10:38:30;99530.47;;;15.20;100.00
71165;BME280;58859;55.132;-1.586;2023-03-25T10:43:40;99536.41;;;15.53;100.00
71165;BME280;58859;55.132;-1.586;2023-03-25T10:48:56;99563.16;;;14.72;100.00
71165;BME280;58859;55.132;-1.586;2023-03-25T10:51:30;99574.41;;;14.66;100.00
71165;BME280;58859;55.132;-1.586;2023-03-25T10:53:56;99568.53;;;14.24;100.00
71165;BME280;58859;55.132;-1.586;2023-03-25T10:56:29;99589.50;;;15.16;100.00
71165;BME280;58859;55.132;-1.586;2023-03-25T10:58:59;99596.78;;;14.75;100.00
71165;BME280;58859;55.132;-1.586;2023-03-25T11:01:35;99608.25;;;14.61;100.00
71165;BME280;58859;55.132;-1.586;2023-03-25T11:04:04;99613.03;;;14.37;100.00
71165;BME280;58859;55.132;-1.586;2023-03-25T11:06:35;99615.69;;;14.90;100.00
71165;BME280;58859;55.132;-1.586;2023-03-25T11:11:33;99616.59;;;14.23;100.00
71165;BME280;58859;55.132;-1.586;2023-03-25T11:14:00;99610.84;;;15.20;100.00
71165;BME280;58859;55.132;-1.586;2023-03-25T11:16:31;99624.28;;;14.45;100.00
71165;BME280;58859;55.132;-1.586;2023-03-25T11:19:00;99623.94;;;14.61;100.00
71165;BME280;58859;55.132;-1.586;2023-03-25T11:21:31;99633.22;;;15.09;100.00
71165;BME280;58859;55.132;-1.586;2023-03-25T11:23:57;99645.47;;;15.61;100.00
71165;BME280;58859;55.132;-1.586;2023-03-25T11:26:26;99636.28;;;16.03;100.00
71165;BME280;58859;55.132;-1.586;2023-03-25T11:29:00;99643.94;;;15.98;100.00
71165;BME280;58859;55.132;-1.586;2023-03-25T11:31:27;99637.50;;;16.38;100.00
71165;BME280;58859;55.132;-1.586;2023-03-25T11:36:36;99638.28;;;16.45;100.00
71165;BME280;58859;55.132;-1.586;2023-03-25T11:40:12;99653.06;;;16.33;100.00
71165;BME280;58859;55.132;-1.586;2023-03-25T11:44:51;99676.31;;;14.93;100.00
71165;BME280;58859;55.132;-1.586;2023-03-25T11:47:31;99680.16;;;15.57;100.00
71165;BME280;58859;55.132;-1.586;2023-03-25T11:49:56;99691.97;;;14.67;100.00
71165;BME280;58859;55.132;-1.586;2023-03-25T11:52:31;99701.25;;;14.63;100.00
71165;BME280;58859;55.132;-1.586;2023-03-25T11:55:00;99699.06;;;13.51;100.00
71165;BME280;58859;55.132;-1.586;2023-03-25T11:57:29;99700.09;;;14.31;100.00
71165;BME280;58859;55.132;-1.586;2023-03-25T12:00:06;99705.84;;;14.14;100.00
71165;BME280;58859;55.132;-1.586;2023-03-25T12:02:39;99713.97;;;14.79;100.00
71165;BME280;58859;55.132;-1.586;2023-03-25T12:07:46;99720.94;;;14.59;100.00
71165;BME280;58859;55.132;-1.586;2023-03-25T12:10:33;99725.66;;;14.90;100.00
71165;BME280;58859;55.132;-1.586;2023-03-25T12:18:40;99740.22;;;15.32;100.00
71165;BME280;58859;55.132;-1.586;2023-03-25T12:21:26;99748.44;;;15.16;100.00
71165;BME280;58859;55.132;-1.586;2023-03-25T12:32:18;99765.34;;;14.93;100.00
71165;BME280;58859;55.132;-1.586;2023-03-25T12:43:13;99769.53;;;14.00;100.00
71165;BME280;58859;55.132;-1.586;2023-03-25T12:56:46;99805.03;;;14.43;100.00
71165;BME280;58859;55.132;-1.586;2023-03-25T13:07:20;99812.34;;;13.92;100.00
71165;BME280;58859;55.132;-1.586;2023-03-25T13:10:12;99823.59;;;13.65;100.00
71165;BME280;58859;55.132;-1.586;2023-03-25T13:12:48;99813.66;;;13.81;100.00
71165;BME280;58859;55.132;-1.586;2023-03-25T13:15:24;99828.97;;;13.85;100.00
71165;BME280;58859;55.132;-1.586;2023-03-25T13:17:57;99830.25;;;13.67;100.00
71165;BME280;58859;55.132;-1.586;2023-03-25T13:20:27;99824.81;;;13.97;100.00
71165;BME280;58859;55.132;-1.586;2023-03-25T13:23:00;99837.50;;;14.00;100.00
71165;BME280;58859;55.132;-1.586;2023-03-25T13:25:43;99836.28;;;14.23;100.00
71165;BME280;58859;55.132;-1.586;2023-03-25T13:28:18;99843.47;;;14.15;100.00
71165;BME280;58859;55.132;-1.586;2023-03-25T13:30:47;99840.03;;;14.14;100.00
71165;BME280;58859;55.132;-1.586;2023-03-25T13:33:27;99840.88;;;13.94;100.00
71165;BME280;58859;55.132;-1.586;2023-03-25T13:36:16;99843.50;;;13.94;100.00
71165;BME280;58859;55.132;-1.586;2023-03-25T13:38:50;99830.91;;;13.12;100.00
71165;BME280;58859;55.132;-1.586;2023-03-25T13:41:41;99844.75;;;13.98;100.00
71165;BME280;58859;55.132;-1.586;2023-03-25T13:44:20;99847.72;;;14.22;100.00
71165;BME280;58859;55.132;-1.586;2023-03-25T13:46:53;99849.16;;;13.69;100.00
71165;BME280;58859;55.132;-1.586;2023-03-25T13:49:26;99853.19;;;13.72;100.00
71165;BME280;58859;55.132;-1.586;2023-03-25T13:51:54;99858.84;;;13.54;100.00
71165;BME280;58859;55.132;-1.586;2023-03-25T13:54:25;99865.06;;;13.74;100.00
71165;BME280;58859;55.132;-1.586;2023-03-25T14:13:46;99874.94;;;14.28;100.00
71165;BME280;58859;55.132;-1.586;2023-03-25T14:16:16;99874.53;;;14.52;100.00
71165;BME280;58859;55.132;-1.586;2023-03-25T14:18:47;99878.06;;;14.38;100.00
71165;BME280;58859;55.132;-1.586;2023-03-25T14:23:46;99882.38;;;14.31;100.00
71165;BME280;58859;55.132;-1.586;2023-03-25T14:26:16;99893.06;;;14.02;100.00
71165;BME280;58859;55.132;-1.586;2023-03-25T14:28:44;99893.88;;;14.30;100.00
71165;BME280;58859;55.132;-1.586;2023-03-25T14:42:01;99905.13;;;13.60;100.00
71165;BME280;58859;55.132;-1.586;2023-03-25T14:44:34;99894.88;;;13.23;100.00
71165;BME280;58859;55.132;-1.586;2023-03-25T14:52:16;99916.88;;;13.50;100.00
71165;BME280;58859;55.132;-1.586;2023-03-25T14:54:43;99919.31;;;13.94;100.00
71165;BME280;58859;55.132;-1.586;2023-03-25T14:57:16;99914.03;;;13.87;100.00
71165;BME280;58859;55.132;-1.586;2023-03-25T14:59:44;99919.81;;;13.61;100.00
71165;BME280;58859;55.132;-1.586;2023-03-25T15:02:29;99922.44;;;13.61;100.00
71165;BME280;58859;55.132;-1.586;2023-03-25T15:07:48;99924.06;;;14.94;100.00
71165;BME280;58859;55.132;-1.586;2023-03-25T15:10:21;99913.50;;;14.19;100.00
71165;BME280;58859;55.132;-1.586;2023-03-25T15:13:26;99929.00;;;14.21;100.00
71165;BME280;58859;55.132;-1.586;2023-03-25T15:15:56;99937.66;;;14.21;100.00
71165;BME280;58859;55.132;-1.586;2023-03-25T15:56:14;99985.16;;;13.61;100.00
71165;BME280;58859;55.132;-1.586;2023-03-25T16:01:31;99986.59;;;13.64;100.00
71165;BME280;58859;55.132;-1.586;2023-03-25T16:04:06;99979.63;;;13.92;100.00
71165;BME280;58859;55.132;-1.586;2023-03-25T16:06:40;99986.66;;;13.92;100.00
71165;BME280;58859;55.132;-1.586;2023-03-25T16:09:13;99994.91;;;13.53;100.00
71165;BME280;58859;55.132;-1.586;2023-03-25T16:11:43;99989.50;;;13.40;100.00
71165;BME280;58859;55.132;-1.586;2023-03-25T16:14:14;99987.88;;;13.53;100.00